sensor_id;sensor_type;location;lat;lon;timestamp;temperature;humidity
63094;DHT22;49183;51.380;0.098;2024-03-08T00:00:12;4.30;81.30
63094;DHT22;49183;51.380;0.098;2024-03-08T00:02:42;4.30;81.50
63094;DHT22;49183;51.380;0.098;2024-03-08T00:05:10;4.30;81.60
63094;DHT22;49183;51.380;0.098;2024-03-08T00:07:38;4.20;81.80
63094;DHT22;49183;51.380;0.098;2024-03-08T00:10:07;4.20;81.90
63094;DHT22;49183;51.380;0.098;2024-03-08T00:12:41;4.20;82.10
63094;DHT22;49183;51.380;0.098;2024-03-08T00:15:13;4.10;82.20
63094;DHT22;49183;51.380;0.098;2024-03-08T00:17:44;4.10;82.20
63094;DHT22;49183;51.380;0.098;2024-03-08T00:20:12;4.10;82.10
63094;DHT22;49183;51.380;0.098;2024-03-08T00:22:41;4.10;82.10
63094;DHT22;49183;51.380;0.098;2024-03-08T00:25:08;4.10;82.20
63094;DHT22;49183;51.380;0.098;2024-03-08T00:27:37;4.00;82.20
63094;DHT22;49183;51.380;0.098;2024-03-08T00:30:05;4.00;82.40
63094;DHT22;49183;51.380;0.098;2024-03-08T00:32:35;3.90;82.50
63094;DHT22;49183;51.380;0.098;2024-03-08T00:35:03;3.90;82.80
63094;DHT22;49183;51.380;0.098;2024-03-08T00:37:32;4.00;83.00
63094;DHT22;49183;51.380;0.098;2024-03-08T00:40:01;4.00;83.00
63094;DHT22;49183;51.380;0.098;2024-03-08T00:42:29;4.00;83.10
63094;DHT22;49183;51.380;0.098;2024-03-08T00:44:57;4.00;83.20
63094;DHT22;49183;51.380;0.098;2024-03-08T00:47:25;4.00;83.40
63094;DHT22;49183;51.380;0.098;2024-03-08T00:49:54;4.00;83.50
63094;DHT22;49183;51.380;0.098;2024-03-08T00:52:24;3.90;83.70
63094;DHT22;49183;51.380;0.098;2024-03-08T00:54:52;3.90;83.90
63094;DHT22;49183;51.380;0.098;2024-03-08T00:57:20;3.90;84.20
63094;DHT22;49183;51.380;0.098;2024-03-08T00:59:49;3.80;84.40
63094;DHT22;49183;51.380;0.098;2024-03-08T01:02:17;3.80;84.70
63094;DHT22;49183;51.380;0.098;2024-03-08T01:04:47;3.80;84.80
63094;DHT22;49183;51.380;0.098;2024-03-08T01:07:14;3.70;84.90
63094;DHT22;49183;51.380;0.098;2024-03-08T01:09:44;3.70;85.00
63094;DHT22;49183;51.380;0.098;2024-03-08T01:12:11;3.70;85.20
63094;DHT22;49183;51.380;0.098;2024-03-08T01:14:39;3.60;85.30
63094;DHT22;49183;51.380;0.098;2024-03-08T01:17:06;3.70;85.30
63094;DHT22;49183;51.380;0.098;2024-03-08T01:19:35;3.60;85.40
63094;DHT22;49183;51.380;0.098;2024-03-08T01:22:02;3.60;85.40
63094;DHT22;49183;51.380;0.098;2024-03-08T01:24:30;3.50;85.70
63094;DHT22;49183;51.380;0.098;2024-03-08T01:26:58;3.50;85.70
63094;DHT22;49183;51.380;0.098;2024-03-08T01:29:26;3.60;85.90
63094;DHT22;49183;51.380;0.098;2024-03-08T01:31:55;3.60;85.90
63094;DHT22;49183;51.380;0.098;2024-03-08T01:34:23;3.60;85.90
63094;DHT22;49183;51.380;0.098;2024-03-08T01:36:51;3.60;86.10
63094;DHT22;49183;51.380;0.098;2024-03-08T01:39:18;3.70;86.20
63094;DHT22;49183;51.380;0.098;2024-03-08T01:41:46;3.70;86.30
63094;DHT22;49183;51.380;0.098;2024-03-08T01:44:14;3.70;86.30
63094;DHT22;49183;51.380;0.098;2024-03-08T01:46:45;3.70;86.30
63094;DHT22;49183;51.380;0.098;2024-03-08T01:49:13;3.70;86.50
63094;DHT22;49183;51.380;0.098;2024-03-08T01:51:41;3.60;86.60
63094;DHT22;49183;51.380;0.098;2024-03-08T01:54:09;3.70;86.70
63094;DHT22;49183;51.380;0.098;2024-03-08T01:56:37;3.60;86.80
63094;DHT22;49183;51.380;0.098;2024-03-08T01:59:06;3.70;86.90
63094;DHT22;49183;51.380;0.098;2024-03-08T02:01:35;3.70;87.00
63094;DHT22;49183;51.380;0.098;2024-03-08T02:04:03;3.70;87.20
63094;DHT22;49183;51.380;0.098;2024-03-08T02:06:33;3.80;87.30
63094;DHT22;49183;51.380;0.098;2024-03-08T02:09:01;3.80;87.30
63094;DHT22;49183;51.380;0.098;2024-03-08T02:11:34;3.90;87.30
63094;DHT22;49183;51.380;0.098;2024-03-08T02:14:02;3.90;87.30
63094;DHT22;49183;51.380;0.098;2024-03-08T02:16:30;4.00;87.30
63094;DHT22;49183;51.380;0.098;2024-03-08T02:18:57;4.00;87.40
63094;DHT22;49183;51.380;0.098;2024-03-08T02:21:25;4.00;87.40
63094;DHT22;49183;51.380;0.098;2024-03-08T02:23:53;4.10;87.40
63094;DHT22;49183;51.380;0.098;2024-03-08T02:26:20;4.10;87.40
63094;DHT22;49183;51.380;0.098;2024-03-08T02:28:48;4.10;87.40
63094;DHT22;49183;51.380;0.098;2024-03-08T02:31:16;4.10;87.50
63094;DHT22;49183;51.380;0.098;2024-03-08T02:33:43;4.10;87.50
63094;DHT22;49183;51.380;0.098;2024-03-08T02:36:11;4.20;87.50
63094;DHT22;49183;51.380;0.098;2024-03-08T02:38:40;4.30;87.50
63094;DHT22;49183;51.380;0.098;2024-03-08T02:41:09;4.30;87.50
63094;DHT22;49183;51.380;0.098;2024-03-08T02:43:37;4.40;87.50
63094;DHT22;49183;51.380;0.098;2024-03-08T02:46:05;4.40;87.50
63094;DHT22;49183;51.380;0.098;2024-03-08T02:48:32;4.40;87.50
63094;DHT22;49183;51.380;0.098;2024-03-08T02:51:00;4.50;87.50
63094;DHT22;49183;51.380;0.098;2024-03-08T02:53:29;4.60;87.50
63094;DHT22;49183;51.380;0.098;2024-03-08T02:55:57;4.60;87.40
63094;DHT22;49183;51.380;0.098;2024-03-08T02:58:25;4.70;87.40
63094;DHT22;49183;51.380;0.098;2024-03-08T03:00:52;4.70;87.40
63094;DHT22;49183;51.380;0.098;2024-03-08T03:03:20;4.70;87.50
63094;DHT22;49183;51.380;0.098;2024-03-08T03:05:48;4.80;87.50
63094;DHT22;49183;51.380;0.098;2024-03-08T03:08:17;4.80;87.60
63094;DHT22;49183;51.380;0.098;2024-03-08T03:10:45;4.80;87.60
63094;DHT22;49183;51.380;0.098;2024-03-08T03:13:13;4.80;87.60
63094;DHT22;49183;51.380;0.098;2024-03-08T03:15:41;4.80;87.70
63094;DHT22;49183;51.380;0.098;2024-03-08T03:18:09;4.80;87.70
63094;DHT22;49183;51.380;0.098;2024-03-08T03:20:37;4.80;87.70
63094;DHT22;49183;51.380;0.098;2024-03-08T03:23:09;4.80;87.70
63094;DHT22;49183;51.380;0.098;2024-03-08T03:25:41;4.80;87.80
63094;DHT22;49183;51.380;0.098;2024-03-08T03:28:09;4.80;87.80
63094;DHT22;49183;51.380;0.098;2024-03-08T03:30:38;4.80;87.90
63094;DHT22;49183;51.380;0.098;2024-03-08T03:33:06;4.80;87.90
63094;DHT22;49183;51.380;0.098;2024-03-08T03:35:35;4.80;87.90
63094;DHT22;49183;51.380;0.098;2024-03-08T03:38:05;4.80;88.00
63094;DHT22;49183;51.380;0.098;2024-03-08T03:40:38;4.80;87.90
63094;DHT22;49183;51.380;0.098;2024-03-08T03:43:07;4.90;88.00
63094;DHT22;49183;51.380;0.098;2024-03-08T03:45:38;4.90;87.90
63094;DHT22;49183;51.380;0.098;2024-03-08T03:48:06;5.00;87.90
63094;DHT22;49183;51.380;0.098;2024-03-08T03:50:37;4.90;87.80
63094;DHT22;49183;51.380;0.098;2024-03-08T03:53:06;5.00;87.80
63094;DHT22;49183;51.380;0.098;2024-03-08T03:55:37;5.00;87.70
63094;DHT22;49183;51.380;0.098;2024-03-08T03:58:08;5.00;87.70
63094;DHT22;49183;51.380;0.098;2024-03-08T04:00:38;5.00;87.70
63094;DHT22;49183;51.380;0.098;2024-03-08T04:03:07;5.00;87.70
63094;DHT22;49183;51.380;0.098;2024-03-08T04:05:36;5.00;87.70
63094;DHT22;49183;51.380;0.098;2024-03-08T04:08:03;5.00;87.70
63094;DHT22;49183;51.380;0.098;2024-03-08T04:10:31;5.00;87.70
63094;DHT22;49183;51.380;0.098;2024-03-08T04:13:01;5.00;87.70
63094;DHT22;49183;51.380;0.098;2024-03-08T04:15:29;5.00;87.80
63094;DHT22;49183;51.380;0.098;2024-03-08T04:17:57;5.10;87.80
63094;DHT22;49183;51.380;0.098;2024-03-08T04:20:28;5.10;87.70
63094;DHT22;49183;51.380;0.098;2024-03-08T04:22:55;5.10;87.70
63094;DHT22;49183;51.380;0.098;2024-03-08T04:25:23;5.00;87.70
63094;DHT22;49183;51.380;0.098;2024-03-08T04:27:51;5.10;87.70
63094;DHT22;49183;51.380;0.098;2024-03-08T04:30:19;5.00;87.60
63094;DHT22;49183;51.380;0.098;2024-03-08T04:32:48;5.00;87.60
63094;DHT22;49183;51.380;0.098;2024-03-08T04:35:16;5.00;87.60
63094;DHT22;49183;51.380;0.098;2024-03-08T04:37:44;5.00;87.70
63094;DHT22;49183;51.380;0.098;2024-03-08T04:40:12;4.90;87.60
63094;DHT22;49183;51.380;0.098;2024-03-08T04:42:39;4.90;87.60
63094;DHT22;49183;51.380;0.098;2024-03-08T04:45:08;4.90;87.50
63094;DHT22;49183;51.380;0.098;2024-03-08T04:47:38;4.90;87.60
63094;DHT22;49183;51.380;0.098;2024-03-08T04:50:06;4.90;87.60
63094;DHT22;49183;51.380;0.098;2024-03-08T04:52:34;4.90;87.70
63094;DHT22;49183;51.380;0.098;2024-03-08T04:55:03;4.90;87.70
63094;DHT22;49183;51.380;0.098;2024-03-08T04:57:32;4.90;87.70
63094;DHT22;49183;51.380;0.098;2024-03-08T05:00:00;4.90;87.60
63094;DHT22;49183;51.380;0.098;2024-03-08T05:02:28;4.90;87.60
63094;DHT22;49183;51.380;0.098;2024-03-08T05:04:55;4.90;87.50
63094;DHT22;49183;51.380;0.098;2024-03-08T05:07:23;4.90;87.40
63094;DHT22;49183;51.380;0.098;2024-03-08T05:09:51;4.90;87.30
63094;DHT22;49183;51.380;0.098;2024-03-08T05:12:19;4.90;87.20
63094;DHT22;49183;51.380;0.098;2024-03-08T05:14:47;5.00;87.10
63094;DHT22;49183;51.380;0.098;2024-03-08T05:17:18;5.00;87.10
63094;DHT22;49183;51.380;0.098;2024-03-08T05:19:45;5.00;86.90
63094;DHT22;49183;51.380;0.098;2024-03-08T05:22:13;5.00;86.90
63094;DHT22;49183;51.380;0.098;2024-03-08T05:24:42;5.00;86.80
63094;DHT22;49183;51.380;0.098;2024-03-08T05:27:10;5.00;86.70
63094;DHT22;49183;51.380;0.098;2024-03-08T05:29:38;5.00;86.70
63094;DHT22;49183;51.380;0.098;2024-03-08T05:32:06;5.10;86.70
63094;DHT22;49183;51.380;0.098;2024-03-08T05:34:34;5.10;86.70
63094;DHT22;49183;51.380;0.098;2024-03-08T05:37:02;5.10;86.70
63094;DHT22;49183;51.380;0.098;2024-03-08T05:39:29;5.10;86.70
63094;DHT22;49183;51.380;0.098;2024-03-08T05:41:57;5.10;86.70
63094;DHT22;49183;51.380;0.098;2024-03-08T05:44:25;5.10;86.70
63094;DHT22;49183;51.380;0.098;2024-03-08T05:46:56;5.10;86.80
63094;DHT22;49183;51.380;0.098;2024-03-08T05:49:23;5.10;86.80
63094;DHT22;49183;51.380;0.098;2024-03-08T05:51:52;5.10;86.80
63094;DHT22;49183;51.380;0.098;2024-03-08T05:54:21;5.10;86.80
63094;DHT22;49183;51.380;0.098;2024-03-08T05:56:53;5.10;86.80
63094;DHT22;49183;51.380;0.098;2024-03-08T05:59:22;5.10;86.80
63094;DHT22;49183;51.380;0.098;2024-03-08T06:01:51;5.10;86.70
63094;DHT22;49183;51.380;0.098;2024-03-08T06:04:18;5.10;86.70
63094;DHT22;49183;51.380;0.098;2024-03-08T06:06:46;5.10;86.70
63094;DHT22;49183;51.380;0.098;2024-03-08T06:09:18;5.10;86.80
63094;DHT22;49183;51.380;0.098;2024-03-08T06:11:51;5.00;86.70
63094;DHT22;49183;51.380;0.098;2024-03-08T06:14:20;5.00;86.70
63094;DHT22;49183;51.380;0.098;2024-03-08T06:16:48;5.00;86.70
63094;DHT22;49183;51.380;0.098;2024-03-08T06:19:18;5.00;86.70
63094;DHT22;49183;51.380;0.098;2024-03-08T06:21:45;4.90;86.70
63094;DHT22;49183;51.380;0.098;2024-03-08T06:24:13;4.90;86.80
63094;DHT22;49183;51.380;0.098;2024-03-08T06:26:42;4.90;86.80
63094;DHT22;49183;51.380;0.098;2024-03-08T06:29:10;4.80;86.80
63094;DHT22;49183;51.380;0.098;2024-03-08T06:31:37;4.80;86.90
63094;DHT22;49183;51.380;0.098;2024-03-08T06:34:07;4.80;87.00
63094;DHT22;49183;51.380;0.098;2024-03-08T06:36:36;4.80;87.00
63094;DHT22;49183;51.380;0.098;2024-03-08T06:39:05;4.80;87.00
63094;DHT22;49183;51.380;0.098;2024-03-08T06:41:37;4.80;87.10
63094;DHT22;49183;51.380;0.098;2024-03-08T06:44:05;4.80;87.00
63094;DHT22;49183;51.380;0.098;2024-03-08T06:46:35;4.80;87.10
63094;DHT22;49183;51.380;0.098;2024-03-08T06:49:03;4.70;87.00
63094;DHT22;49183;51.380;0.098;2024-03-08T06:51:31;4.70;87.10
63094;DHT22;49183;51.380;0.098;2024-03-08T06:54:00;4.60;87.20
63094;DHT22;49183;51.380;0.098;2024-03-08T06:56:28;4.50;87.30
63094;DHT22;49183;51.380;0.098;2024-03-08T06:58:57;4.50;87.40
63094;DHT22;49183;51.380;0.098;2024-03-08T07:01:25;4.40;87.60
63094;DHT22;49183;51.380;0.098;2024-03-08T07:03:52;4.40;87.80
63094;DHT22;49183;51.380;0.098;2024-03-08T07:06:20;4.40;87.90
63094;DHT22;49183;51.380;0.098;2024-03-08T07:08:48;4.50;87.90
63094;DHT22;49183;51.380;0.098;2024-03-08T07:11:16;4.40;87.90
63094;DHT22;49183;51.380;0.098;2024-03-08T07:13:46;4.40;88.00
63094;DHT22;49183;51.380;0.098;2024-03-08T07:16:14;4.40;88.00
63094;DHT22;49183;51.380;0.098;2024-03-08T07:18:42;4.40;88.00
63094;DHT22;49183;51.380;0.098;2024-03-08T07:21:11;4.40;88.10
63094;DHT22;49183;51.380;0.098;2024-03-08T07:23:39;4.40;88.10
63094;DHT22;49183;51.380;0.098;2024-03-08T07:26:17;4.40;88.10
63094;DHT22;49183;51.380;0.098;2024-03-08T07:28:46;4.40;88.10
63094;DHT22;49183;51.380;0.098;2024-03-08T07:31:13;4.40;88.20
63094;DHT22;49183;51.380;0.098;2024-03-08T07:33:44;4.40;88.20
63094;DHT22;49183;51.380;0.098;2024-03-08T07:36:12;4.50;88.10
63094;DHT22;49183;51.380;0.098;2024-03-08T07:38:39;4.50;88.10
63094;DHT22;49183;51.380;0.098;2024-03-08T07:41:08;4.60;88.00
63094;DHT22;49183;51.380;0.098;2024-03-08T07:43:38;4.60;87.90
63094;DHT22;49183;51.380;0.098;2024-03-08T07:46:06;4.80;87.70
63094;DHT22;49183;51.380;0.098;2024-03-08T07:48:34;4.80;87.50
63094;DHT22;49183;51.380;0.098;2024-03-08T07:51:02;4.90;87.30
63094;DHT22;49183;51.380;0.098;2024-03-08T07:53:30;4.90;87.20
63094;DHT22;49183;51.380;0.098;2024-03-08T07:55:58;4.90;87.10
63094;DHT22;49183;51.380;0.098;2024-03-08T07:58:26;4.90;87.00
63094;DHT22;49183;51.380;0.098;2024-03-08T08:00:55;4.90;86.90
63094;DHT22;49183;51.380;0.098;2024-03-08T08:03:23;5.00;86.90
63094;DHT22;49183;51.380;0.098;2024-03-08T08:05:51;5.10;86.70
63094;DHT22;49183;51.380;0.098;2024-03-08T08:08:19;5.10;86.60
63094;DHT22;49183;51.380;0.098;2024-03-08T08:10:47;5.20;86.60
63094;DHT22;49183;51.380;0.098;2024-03-08T08:13:15;5.30;86.40
63094;DHT22;49183;51.380;0.098;2024-03-08T08:15:44;5.40;86.20
63094;DHT22;49183;51.380;0.098;2024-03-08T08:18:14;5.50;85.70
63094;DHT22;49183;51.380;0.098;2024-03-08T08:20:45;5.50;85.40
63094;DHT22;49183;51.380;0.098;2024-03-08T08:23:14;5.60;85.20
63094;DHT22;49183;51.380;0.098;2024-03-08T08:25:47;5.60;85.00
63094;DHT22;49183;51.380;0.098;2024-03-08T08:28:19;5.70;84.90
63094;DHT22;49183;51.380;0.098;2024-03-08T08:30:49;5.70;84.60
63094;DHT22;49183;51.380;0.098;2024-03-08T08:33:20;5.70;84.20
63094;DHT22;49183;51.380;0.098;2024-03-08T08:35:51;5.70;84.10
63094;DHT22;49183;51.380;0.098;2024-03-08T08:38:23;5.80;84.10
63094;DHT22;49183;51.380;0.098;2024-03-08T08:40:54;5.90;83.90
63094;DHT22;49183;51.380;0.098;2024-03-08T08:43:25;5.90;83.80
63094;DHT22;49183;51.380;0.098;2024-03-08T08:45:55;6.10;83.60
63094;DHT22;49183;51.380;0.098;2024-03-08T08:48:24;6.10;83.30
63094;DHT22;49183;51.380;0.098;2024-03-08T08:50:52;6.10;82.90
63094;DHT22;49183;51.380;0.098;2024-03-08T08:53:22;6.10;82.70
63094;DHT22;49183;51.380;0.098;2024-03-08T08:55:52;6.10;82.50
63094;DHT22;49183;51.380;0.098;2024-03-08T08:58:22;6.20;82.50
63094;DHT22;49183;51.380;0.098;2024-03-08T09:00:53;6.20;82.40
63094;DHT22;49183;51.380;0.098;2024-03-08T09:03:24;6.20;82.30
63094;DHT22;49183;51.380;0.098;2024-03-08T09:05:55;6.20;81.80
63094;DHT22;49183;51.380;0.098;2024-03-08T09:08:26;6.20;81.80
63094;DHT22;49183;51.380;0.098;2024-03-08T09:11:01;6.20;81.60
63094;DHT22;49183;51.380;0.098;2024-03-08T09:13:29;6.30;81.30
63094;DHT22;49183;51.380;0.098;2024-03-08T09:16:03;6.30;80.90
63094;DHT22;49183;51.380;0.098;2024-03-08T09:18:34;6.30;81.00
63094;DHT22;49183;51.380;0.098;2024-03-08T09:21:04;6.30;80.90
63094;DHT22;49183;51.380;0.098;2024-03-08T09:23:35;6.40;80.70
63094;DHT22;49183;51.380;0.098;2024-03-08T09:26:06;6.40;80.60
63094;DHT22;49183;51.380;0.098;2024-03-08T09:28:51;6.50;80.40
63094;DHT22;49183;51.380;0.098;2024-03-08T09:31:22;6.50;80.10
63094;DHT22;49183;51.380;0.098;2024-03-08T09:33:54;6.60;80.00
63094;DHT22;49183;51.380;0.098;2024-03-08T09:36:25;6.60;80.00
63094;DHT22;49183;51.380;0.098;2024-03-08T09:38:58;6.60;79.60
63094;DHT22;49183;51.380;0.098;2024-03-08T09:41:31;6.70;79.50
63094;DHT22;49183;51.380;0.098;2024-03-08T09:44:05;6.70;79.10
63094;DHT22;49183;51.380;0.098;2024-03-08T09:46:37;6.70;79.10
63094;DHT22;49183;51.380;0.098;2024-03-08T09:49:08;6.80;79.10
63094;DHT22;49183;51.380;0.098;2024-03-08T09:51:41;6.80;78.80
63094;DHT22;49183;51.380;0.098;2024-03-08T09:54:13;6.70;78.60
63094;DHT22;49183;51.380;0.098;2024-03-08T09:56:51;6.70;78.80
63094;DHT22;49183;51.380;0.098;2024-03-08T09:59:20;6.70;78.60
63094;DHT22;49183;51.380;0.098;2024-03-08T10:01:51;6.70;78.90
63094;DHT22;49183;51.380;0.098;2024-03-08T10:04:27;6.60;78.70
63094;DHT22;49183;51.380;0.098;2024-03-08T10:06:58;6.60;78.50
63094;DHT22;49183;51.380;0.098;2024-03-08T10:09:27;6.50;78.70
63094;DHT22;49183;51.380;0.098;2024-03-08T10:11:57;6.50;79.00
63094;DHT22;49183;51.380;0.098;2024-03-08T10:14:30;6.50;78.70
63094;DHT22;49183;51.380;0.098;2024-03-08T10:17:03;6.60;78.70
63094;DHT22;49183;51.380;0.098;2024-03-08T10:19:36;6.70;78.50
63094;DHT22;49183;51.380;0.098;2024-03-08T10:22:13;6.80;77.50
63094;DHT22;49183;51.380;0.098;2024-03-08T10:24:45;6.80;77.50
63094;DHT22;49183;51.380;0.098;2024-03-08T10:27:17;6.80;77.20
63094;DHT22;49183;51.380;0.098;2024-03-08T10:29:47;6.90;77.00
63094;DHT22;49183;51.380;0.098;2024-03-08T10:32:19;6.90;76.80
63094;DHT22;49183;51.380;0.098;2024-03-08T10:34:51;6.90;76.60
63094;DHT22;49183;51.380;0.098;2024-03-08T10:37:25;7.00;76.70
63094;DHT22;49183;51.380;0.098;2024-03-08T10:40:02;7.00;75.90
63094;DHT22;49183;51.380;0.098;2024-03-08T10:45:36;7.00;75.80
63094;DHT22;49183;51.380;0.098;2024-03-08T10:48:19;7.10;75.60
63094;DHT22;49183;51.380;0.098;2024-03-08T10:51:03;7.10;75.10
63094;DHT22;49183;51.380;0.098;2024-03-08T10:53:35;7.20;75.20
63094;DHT22;49183;51.380;0.098;2024-03-08T10:56:12;7.30;74.90
63094;DHT22;49183;51.380;0.098;2024-03-08T10:58:44;7.40;74.20
63094;DHT22;49183;51.380;0.098;2024-03-08T11:01:17;7.40;74.30
63094;DHT22;49183;51.380;0.098;2024-03-08T11:03:48;7.50;74.40
63094;DHT22;49183;51.380;0.098;2024-03-08T11:06:30;7.50;74.30
63094;DHT22;49183;51.380;0.098;2024-03-08T11:09:08;7.50;74.10
63094;DHT22;49183;51.380;0.098;2024-03-08T11:11:43;7.50;73.40
63094;DHT22;49183;51.380;0.098;2024-03-08T11:14:58;7.40;73.30
63094;DHT22;49183;51.380;0.098;2024-03-08T11:17:08;7.40;73.50
63094;DHT22;49183;51.380;0.098;2024-03-08T11:19:44;7.40;73.70
63094;DHT22;49183;51.380;0.098;2024-03-08T11:22:23;7.40;73.50
63094;DHT22;49183;51.380;0.098;2024-03-08T11:25:04;7.50;73.00
63094;DHT22;49183;51.380;0.098;2024-03-08T11:27:39;7.40;72.90
63094;DHT22;49183;51.380;0.098;2024-03-08T11:30:21;7.50;72.20
63094;DHT22;49183;51.380;0.098;2024-03-08T11:32:53;7.50;72.70
63094;DHT22;49183;51.380;0.098;2024-03-08T11:35:24;7.60;72.60
63094;DHT22;49183;51.380;0.098;2024-03-08T11:37:58;7.60;72.20
63094;DHT22;49183;51.380;0.098;2024-03-08T11:40:35;7.70;72.20
63094;DHT22;49183;51.380;0.098;2024-03-08T11:43:06;7.70;72.30
63094;DHT22;49183;51.380;0.098;2024-03-08T11:45:38;7.80;72.60
63094;DHT22;49183;51.380;0.098;2024-03-08T11:48:11;7.80;71.50
63094;DHT22;49183;51.380;0.098;2024-03-08T11:50:51;7.80;71.20
63094;DHT22;49183;51.380;0.098;2024-03-08T11:53:30;7.80;71.80
63094;DHT22;49183;51.380;0.098;2024-03-08T11:56:11;7.80;72.30
63094;DHT22;49183;51.380;0.098;2024-03-08T11:58:52;7.90;71.20
63094;DHT22;49183;51.380;0.098;2024-03-08T12:01:26;7.90;70.50
63094;DHT22;49183;51.380;0.098;2024-03-08T12:03:59;7.90;70.80
63094;DHT22;49183;51.380;0.098;2024-03-08T12:06:41;7.80;70.50
63094;DHT22;49183;51.380;0.098;2024-03-08T12:09:13;7.80;70.20
63094;DHT22;49183;51.380;0.098;2024-03-08T12:11:49;7.90;70.30
63094;DHT22;49183;51.380;0.098;2024-03-08T12:14:22;7.90;69.80
63094;DHT22;49183;51.380;0.098;2024-03-08T12:16:55;7.90;69.80
63094;DHT22;49183;51.380;0.098;2024-03-08T12:19:29;7.90;69.80
63094;DHT22;49183;51.380;0.098;2024-03-08T12:22:07;7.90;69.90
63094;DHT22;49183;51.380;0.098;2024-03-08T12:24:41;8.00;69.30
63094;DHT22;49183;51.380;0.098;2024-03-08T12:27:19;7.90;69.40
63094;DHT22;49183;51.380;0.098;2024-03-08T12:29:51;7.80;69.10
63094;DHT22;49183;51.380;0.098;2024-03-08T12:32:26;7.80;69.40
63094;DHT22;49183;51.380;0.098;2024-03-08T12:34:58;7.90;70.00
63094;DHT22;49183;51.380;0.098;2024-03-08T12:37:31;8.00;69.70
63094;DHT22;49183;51.380;0.098;2024-03-08T12:40:05;8.10;69.40
63094;DHT22;49183;51.380;0.098;2024-03-08T12:42:37;8.20;69.20
63094;DHT22;49183;51.380;0.098;2024-03-08T12:45:08;8.10;68.30
63094;DHT22;49183;51.380;0.098;2024-03-08T12:47:41;8.10;67.80
63094;DHT22;49183;51.380;0.098;2024-03-08T12:50:12;8.10;68.00
63094;DHT22;49183;51.380;0.098;2024-03-08T12:52:44;8.00;68.00
63094;DHT22;49183;51.380;0.098;2024-03-08T12:55:18;8.00;68.10
63094;DHT22;49183;51.380;0.098;2024-03-08T12:57:50;8.10;68.00
63094;DHT22;49183;51.380;0.098;2024-03-08T13:00:23;8.10;68.30
63094;DHT22;49183;51.380;0.098;2024-03-08T13:02:54;8.20;68.20
63094;DHT22;49183;51.380;0.098;2024-03-08T13:05:26;8.20;67.50
63094;DHT22;49183;51.380;0.098;2024-03-08T13:07:57;8.20;67.20
63094;DHT22;49183;51.380;0.098;2024-03-08T13:10:29;8.10;67.60
63094;DHT22;49183;51.380;0.098;2024-03-08T13:13:01;8.10;67.70
63094;DHT22;49183;51.380;0.098;2024-03-08T13:15:33;8.20;67.30
63094;DHT22;49183;51.380;0.098;2024-03-08T13:18:06;8.20;67.30
63094;DHT22;49183;51.380;0.098;2024-03-08T13:20:41;8.10;67.50
63094;DHT22;49183;51.380;0.098;2024-03-08T13:23:19;8.20;67.30
63094;DHT22;49183;51.380;0.098;2024-03-08T13:25:53;8.30;66.80
63094;DHT22;49183;51.380;0.098;2024-03-08T13:28:26;8.30;66.80
63094;DHT22;49183;51.380;0.098;2024-03-08T13:31:00;8.40;66.40
63094;DHT22;49183;51.380;0.098;2024-03-08T13:33:33;8.50;66.10
63094;DHT22;49183;51.380;0.098;2024-03-08T13:36:10;8.50;66.60
63094;DHT22;49183;51.380;0.098;2024-03-08T13:38:55;8.50;67.20
63094;DHT22;49183;51.380;0.098;2024-03-08T13:41:34;8.70;67.50
63094;DHT22;49183;51.380;0.098;2024-03-08T13:44:11;8.70;67.60
63094;DHT22;49183;51.380;0.098;2024-03-08T13:46:46;8.80;66.70
63094;DHT22;49183;51.380;0.098;2024-03-08T13:49:22;8.80;65.90
63094;DHT22;49183;51.380;0.098;2024-03-08T13:51:56;8.60;66.40
63094;DHT22;49183;51.380;0.098;2024-03-08T13:54:28;8.40;66.50
63094;DHT22;49183;51.380;0.098;2024-03-08T13:56:59;8.30;67.10
63094;DHT22;49183;51.380;0.098;2024-03-08T13:59:29;8.20;67.60
63094;DHT22;49183;51.380;0.098;2024-03-08T14:02:01;8.20;68.00
63094;DHT22;49183;51.380;0.098;2024-03-08T14:04:30;8.10;68.00
63094;DHT22;49183;51.380;0.098;2024-03-08T14:07:00;8.10;68.30
63094;DHT22;49183;51.380;0.098;2024-03-08T14:09:32;8.10;69.20
63094;DHT22;49183;51.380;0.098;2024-03-08T14:12:05;8.10;70.00
63094;DHT22;49183;51.380;0.098;2024-03-08T14:14:37;8.00;70.00
63094;DHT22;49183;51.380;0.098;2024-03-08T14:17:05;8.00;69.60
63094;DHT22;49183;51.380;0.098;2024-03-08T14:19:35;7.80;70.00
63094;DHT22;49183;51.380;0.098;2024-03-08T14:22:05;7.90;69.50
63094;DHT22;49183;51.380;0.098;2024-03-08T14:24:35;7.90;69.50
63094;DHT22;49183;51.380;0.098;2024-03-08T14:27:04;7.90;70.00
63094;DHT22;49183;51.380;0.098;2024-03-08T14:29:36;7.90;70.20
63094;DHT22;49183;51.380;0.098;2024-03-08T14:32:05;7.90;70.40
63094;DHT22;49183;51.380;0.098;2024-03-08T14:34:36;7.90;70.50
63094;DHT22;49183;51.380;0.098;2024-03-08T14:37:06;8.00;70.60
63094;DHT22;49183;51.380;0.098;2024-03-08T14:39:40;8.00;69.90
63094;DHT22;49183;51.380;0.098;2024-03-08T14:42:08;8.00;69.00
63094;DHT22;49183;51.380;0.098;2024-03-08T14:44:40;8.00;68.30
63094;DHT22;49183;51.380;0.098;2024-03-08T14:47:10;7.90;68.60
63094;DHT22;49183;51.380;0.098;2024-03-08T14:49:39;7.90;68.70
63094;DHT22;49183;51.380;0.098;2024-03-08T14:52:08;7.90;68.50
63094;DHT22;49183;51.380;0.098;2024-03-08T14:55:01;7.90;68.30
63094;DHT22;49183;51.380;0.098;2024-03-08T14:57:34;7.90;68.60
63094;DHT22;49183;51.380;0.098;2024-03-08T15:00:07;7.90;69.10
63094;DHT22;49183;51.380;0.098;2024-03-08T15:02:45;7.90;69.20
63094;DHT22;49183;51.380;0.098;2024-03-08T15:05:16;8.00;69.10
63094;DHT22;49183;51.380;0.098;2024-03-08T15:07:50;8.00;69.30
63094;DHT22;49183;51.380;0.098;2024-03-08T15:10:21;8.00;69.40
63094;DHT22;49183;51.380;0.098;2024-03-08T15:12:56;8.00;69.50
63094;DHT22;49183;51.380;0.098;2024-03-08T15:15:29;8.00;69.20
63094;DHT22;49183;51.380;0.098;2024-03-08T15:17:58;7.90;69.50
63094;DHT22;49183;51.380;0.098;2024-03-08T15:20:26;7.90;69.70
63094;DHT22;49183;51.380;0.098;2024-03-08T15:22:58;7.90;69.40
63094;DHT22;49183;51.380;0.098;2024-03-08T15:25:27;7.80;69.60
63094;DHT22;49183;51.380;0.098;2024-03-08T15:27:57;7.80;70.10
63094;DHT22;49183;51.380;0.098;2024-03-08T15:30:25;7.80;70.20
63094;DHT22;49183;51.380;0.098;2024-03-08T15:32:59;7.80;70.40
63094;DHT22;49183;51.380;0.098;2024-03-08T15:35:30;7.80;70.30
63094;DHT22;49183;51.380;0.098;2024-03-08T15:38:00;7.80;70.40
63094;DHT22;49183;51.380;0.098;2024-03-08T15:40:28;7.70;70.70
63094;DHT22;49183;51.380;0.098;2024-03-08T15:42:58;7.70;71.00
63094;DHT22;49183;51.380;0.098;2024-03-08T15:45:26;7.60;71.40
63094;DHT22;49183;51.380;0.098;2024-03-08T15:47:54;7.60;71.40
63094;DHT22;49183;51.380;0.098;2024-03-08T15:50:27;7.60;71.50
63094;DHT22;49183;51.380;0.098;2024-03-08T15:52:57;7.70;71.60
63094;DHT22;49183;51.380;0.098;2024-03-08T15:55:27;7.70;71.30
63094;DHT22;49183;51.380;0.098;2024-03-08T15:57:57;7.60;71.10
63094;DHT22;49183;51.380;0.098;2024-03-08T16:00:27;7.60;71.40
63094;DHT22;49183;51.380;0.098;2024-03-08T16:03:05;7.60;71.40
63094;DHT22;49183;51.380;0.098;2024-03-08T16:05:42;7.60;71.20
63094;DHT22;49183;51.380;0.098;2024-03-08T16:08:14;7.60;71.20